Time;durP1;ratioP1;P1;durP2;ratioP2;P2;SDS_P1;SDS_P2;PMS_P1;PMS_P2;Temp;Humidity;BMP_temperature;BMP_pressure;BME280_temperature;BME280_humidity;BME280_pressure;Samples;Min_cycle;Max_cycle;Signal;HPM_P1;HPM_P2
2022/10/27 00:00:13;;;;;;;;;;;17.80;99.90;;;;;;5115016;28;19908;-23
2022/10/27 00:02:38;;;;;;;;;;;17.80;99.90;;;;;;5114441;28;19972;-23
2022/10/27 00:05:04;;;;;;;;;;;17.70;99.90;;;;;;5115059;28;20002;-23
2022/10/27 00:07:29;;;;;;;;;;;17.80;99.90;;;;;;5115122;27;19916;-23
2022/10/27 00:09:55;;;;;;;;;;;17.80;99.90;;;;;;5114814;28;19920;-23
2022/10/27 00:12:21;;;;;;;;;;;17.80;99.90;;;;;;5114896;28;19915;-23
2022/10/27 00:14:46;;;;;;;;;;;17.80;99.90;;;;;;5114295;28;20291;-23
2022/10/27 00:17:12;;;;;;;;;;;17.80;99.90;;;;;;5112993;28;19911;-23
2022/10/27 00:19:37;;;;;;;;;;;17.80;99.90;;;;;;5114803;28;20091;-23
2022/10/27 00:22:02;;;;;;;;;;;17.70;99.90;;;;;;5114603;28;19915;-23
2022/10/27 00:24:28;;;;;;;;;;;17.70;99.90;;;;;;5115860;28;20319;-23
2022/10/27 00:26:53;;;;;;;;;;;17.70;99.90;;;;;;5119919;28;19908;-23
2022/10/27 00:29:19;;;;;;;;;;;17.70;99.90;;;;;;5115147;28;19911;-23
2022/10/27 00:31:44;;;;;;;;;;;17.70;99.90;;;;;;5114285;28;19908;-23
2022/10/27 00:34:10;;;;;;;;;;;17.70;99.90;;;;;;5113669;28;20363;-23
2022/10/27 00:36:35;;;;;;;;;;;17.70;99.90;;;;;;5114456;28;20006;-23
2022/10/27 00:39:01;;;;;;;;;;;17.70;99.90;;;;;;5114118;28;19923;-23
2022/10/27 00:41:26;;;;;;;;;;;17.70;99.90;;;;;;5114182;28;19908;-23
2022/10/27 00:43:52;;;;;;;;;;;17.70;99.90;;;;;;5113557;28;19980;-23
2022/10/27 00:46:27;;;;;;;;;;;17.70;99.90;;;;;;5114001;28;19915;-23
2022/10/27 00:48:55;;;;;;;;;;;17.70;99.90;;;;;;5113941;28;19919;-23
2022/10/27 00:51:21;;;;;;;;;;;17.70;99.90;;;;;;5114354;28;19911;-23
2022/10/27 00:53:48;;;;;;;;;;;17.70;99.90;;;;;;5115160;28;19912;-23
2022/10/27 00:56:14;;;;;;;;;;;17.70;99.90;;;;;;5114317;28;19918;-23
2022/10/27 00:58:39;;;;;;;;;;;17.70;99.90;;;;;;5115072;28;19919;-23
2022/10/27 01:01:05;;;;;;;;;;;17.60;99.90;;;;;;5114025;28;20280;-23
2022/10/27 01:03:31;;;;;;;;;;;17.70;99.90;;;;;;5113933;28;19953;-23
2022/10/27 01:05:57;;;;;;;;;;;17.60;99.90;;;;;;5113861;28;20423;-23
2022/10/27 01:08:23;;;;;;;;;;;17.60;99.90;;;;;;5115073;28;19958;-23
2022/10/27 01:10:49;;;;;;;;;;;17.70;99.90;;;;;;5114284;28;20345;-23
2022/10/27 01:13:15;;;;;;;;;;;17.70;99.90;;;;;;5113608;28;19918;-29
2022/10/27 01:15:43;;;;;;;;;;;17.70;99.90;;;;;;5112457;28;20354;-23
2022/10/27 01:18:11;;;;;;;;;;;17.60;99.90;;;;;;5113474;28;20368;-23
2022/10/27 01:20:49;;;;;;;;;;;17.60;99.90;;;;;;5113422;28;19915;-23
2022/10/27 01:23:33;;;;;;;;;;;17.60;99.90;;;;;;5112321;28;19914;-23
2022/10/27 01:25:59;;;;;;;;;;;17.60;99.90;;;;;;5114545;28;19977;-23
2022/10/27 01:28:41;;;;;;;;;;;17.60;99.90;;;;;;5114333;28;19908;-23
2022/10/27 01:31:08;;;;;;;;;;;17.60;99.90;;;;;;5113310;28;19907;-23
2022/10/27 01:33:47;;;;;;;;;;;17.60;99.90;;;;;;5112775;28;19918;-23
2022/10/27 01:36:23;;;;;;;;;;;17.60;99.90;;;;;;5113832;28;19918;-24
2022/10/27 01:38:55;;;;;;;;;;;17.60;99.90;;;;;;5113542;28;19912;-23
2022/10/27 01:41:26;;;;;;;;;;;17.60;99.90;;;;;;5113264;28;19994;-23
2022/10/27 01:43:54;;;;;;;;;;;17.50;99.90;;;;;;5113008;28;19918;-23
2022/10/27 01:46:19;;;;;;;;;;;17.60;99.90;;;;;;5112983;28;20028;-23
2022/10/27 01:48:45;;;;;;;;;;;17.60;99.90;;;;;;5113027;28;19952;-23
2022/10/27 01:51:11;;;;;;;;;;;17.60;99.90;;;;;;5113385;28;19908;-23
2022/10/27 01:53:40;;;;;;;;;;;17.60;99.90;;;;;;5112605;28;19911;-23
2022/10/27 01:56:08;;;;;;;;;;;17.60;99.90;;;;;;5113281;27;19908;-23
2022/10/27 01:58:49;;;;;;;;;;;17.60;99.90;;;;;;5113646;28;19912;-23
2022/10/27 02:01:17;;;;;;;;;;;17.50;99.90;;;;;;5112949;28;19912;-23
2022/10/27 02:03:46;;;;;;;;;;;17.60;99.90;;;;;;5112556;28;19907;-23
2022/10/27 02:06:34;;;;;;;;;;;17.50;99.90;;;;;;5113137;28;19908;-23
2022/10/27 02:09:08;;;;;;;;;;;17.50;99.90;;;;;;5112869;28;19915;-23
2022/10/27 02:11:36;;;;;;;;;;;17.50;99.90;;;;;;5113103;28;19947;-23
2022/10/27 02:14:02;;;;;;;;;;;17.50;99.90;;;;;;5112422;28;20402;-23
2022/10/27 02:16:29;;;;;;;;;;;17.50;99.90;;;;;;5112965;28;19937;-23
2022/10/27 02:19:15;;;;;;;;;;;17.50;99.90;;;;;;5113395;27;19919;-23
2022/10/27 02:21:40;;;;;;;;;;;17.50;99.90;;;;;;5113137;28;19955;-23
2022/10/27 02:24:06;;;;;;;;;;;17.50;99.90;;;;;;5111677;28;19946;-23
2022/10/27 02:26:39;;;;;;;;;;;17.50;99.90;;;;;;5112522;28;19908;-23
2022/10/27 02:29:12;;;;;;;;;;;17.50;99.90;;;;;;5112785;28;19912;-23
2022/10/27 02:31:40;;;;;;;;;;;17.50;99.90;;;;;;5112659;28;20003;-23
2022/10/27 02:34:06;;;;;;;;;;;17.40;99.90;;;;;;5111498;28;19993;-23
2022/10/27 02:36:32;;;;;;;;;;;17.50;99.90;;;;;;5112498;28;19908;-23
2022/10/27 02:38:58;;;;;;;;;;;17.50;99.90;;;;;;5094588;28;19977;-23
2022/10/27 02:41:23;;;;;;;;;;;17.50;99.90;;;;;;5112308;28;20002;-23
2022/10/27 02:43:49;;;;;;;;;;;17.40;99.90;;;;;;5112133;28;20321;-23
2022/10/27 02:46:14;;;;;;;;;;;17.40;99.90;;;;;;5112347;28;19975;-23
2022/10/27 02:48:40;;;;;;;;;;;17.40;99.90;;;;;;5112114;28;20308;-22
2022/10/27 02:51:05;;;;;;;;;;;17.40;99.90;;;;;;5111813;28;19981;-23
2022/10/27 02:53:31;;;;;;;;;;;17.40;99.90;;;;;;5112095;28;20006;-22
2022/10/27 02:55:56;;;;;;;;;;;17.40;99.90;;;;;;5112300;28;19962;-23
2022/10/27 02:58:22;;;;;;;;;;;17.40;99.90;;;;;;5111572;28;20372;-23
2022/10/27 03:00:51;;;;;;;;;;;17.40;99.90;;;;;;5117009;28;19907;-22
2022/10/27 03:03:17;;;;;;;;;;;17.40;99.90;;;;;;5115935;28;19981;-23
2022/10/27 03:05:42;;;;;;;;;;;17.40;99.90;;;;;;5111383;28;19916;-23
2022/10/27 03:08:08;;;;;;;;;;;17.40;99.90;;;;;;5112041;28;19965;-23
2022/10/27 03:10:33;;;;;;;;;;;17.40;99.90;;;;;;5112548;28;19908;-23
2022/10/27 03:12:59;;;;;;;;;;;17.40;99.90;;;;;;5111286;28;19911;-23
2022/10/27 03:15:24;;;;;;;;;;;17.40;99.90;;;;;;5112222;28;19908;-23
2022/10/27 03:17:50;;;;;;;;;;;17.40;99.90;;;;;;5112099;28;19919;-23
2022/10/27 03:20:15;;;;;;;;;;;17.40;99.90;;;;;;5111526;28;20407;-23
2022/10/27 03:22:41;;;;;;;;;;;17.40;99.90;;;;;;5111951;28;19918;-23
2022/10/27 03:25:07;;;;;;;;;;;17.40;99.90;;;;;;5112225;28;19915;-22
2022/10/27 03:27:33;;;;;;;;;;;17.30;99.90;;;;;;5111709;28;19915;-23
2022/10/27 03:29:59;;;;;;;;;;;17.30;99.90;;;;;;5112523;28;19908;-23
2022/10/27 03:32:24;;;;;;;;;;;17.30;99.90;;;;;;5111372;28;20383;-23
2022/10/27 03:34:50;;;;;;;;;;;17.30;99.90;;;;;;5111210;28;19920;-23
2022/10/27 03:37:15;;;;;;;;;;;17.30;99.90;;;;;;5111649;28;20017;-23
2022/10/27 03:39:41;;;;;;;;;;;17.30;99.90;;;;;;5111441;28;19916;-23
2022/10/27 03:42:06;;;;;;;;;;;17.30;99.90;;;;;;5111504;28;19908;-23
2022/10/27 03:44:31;;;;;;;;;;;17.30;99.90;;;;;;5110866;28;19915;-23
2022/10/27 03:46:57;;;;;;;;;;;17.30;99.90;;;;;;5111703;28;20447;-23
2022/10/27 03:49:23;;;;;;;;;;;17.30;99.90;;;;;;5111468;28;19918;-23
2022/10/27 03:51:48;;;;;;;;;;;17.30;99.90;;;;;;5112170;28;20014;-23
2022/10/27 03:54:14;;;;;;;;;;;17.30;99.90;;;;;;5110919;28;19908;-23
2022/10/27 03:56:39;;;;;;;;;;;17.30;99.90;;;;;;5112155;28;19912;-23
2022/10/27 03:59:05;;;;;;;;;;;17.30;99.90;;;;;;5111850;28;19912;-23
2022/10/27 04:01:32;;;;;;;;;;;17.20;99.90;;;;;;5111296;28;19908;-23
2022/10/27 04:03:58;;;;;;;;;;;17.20;99.90;;;;;;5110819;28;20338;-23
2022/10/27 04:06:23;;;;;;;;;;;17.20;99.90;;;;;;5111047;28;19912;-23
2022/10/27 04:08:48;;;;;;;;;;;17.20;99.90;;;;;;5112054;28;19912;-23
2022/10/27 04:11:14;;;;;;;;;;;17.20;99.90;;;;;;5115308;28;19912;-23
2022/10/27 04:13:40;;;;;;;;;;;17.20;99.90;;;;;;5114726;28;19916;-23
2022/10/27 04:16:05;;;;;;;;;;;17.20;99.90;;;;;;5115259;28;19908;-23
2022/10/27 04:18:31;;;;;;;;;;;17.20;99.90;;;;;;5115290;28;20360;-23
2022/10/27 04:21:00;;;;;;;;;;;17.20;99.90;;;;;;5114811;28;19953;-23
2022/10/27 04:23:26;;;;;;;;;;;17.20;99.90;;;;;;5114109;28;19962;-23
2022/10/27 04:25:51;;;;;;;;;;;17.20;99.90;;;;;;5114430;28;19950;-23
2022/10/27 04:28:18;;;;;;;;;;;17.20;99.90;;;;;;5114524;27;19907;-23
2022/10/27 04:30:44;;;;;;;;;;;17.10;99.90;;;;;;5114869;28;19908;-23
2022/10/27 04:33:09;;;;;;;;;;;17.20;99.90;;;;;;5113983;28;20010;-22
2022/10/27 04:35:35;;;;;;;;;;;17.20;99.90;;;;;;5113101;28;19927;-22
2022/10/27 04:38:00;;;;;;;;;;;17.10;99.90;;;;;;5114073;28;19923;-23
2022/10/27 04:40:26;;;;;;;;;;;17.10;99.90;;;;;;5114849;28;19912;-23
2022/10/27 04:42:52;;;;;;;;;;;17.10;99.90;;;;;;5114165;28;19959;-23
2022/10/27 04:45:17;;;;;;;;;;;17.10;99.90;;;;;;5113898;28;19994;-23
2022/10/27 04:47:44;;;;;;;;;;;17.10;99.90;;;;;;5114262;28;19942;-24
2022/10/27 04:50:09;;;;;;;;;;;17.10;99.90;;;;;;5116498;28;19911;-23
2022/10/27 04:52:35;;;;;;;;;;;17.10;99.90;;;;;;5114395;28;20010;-23
2022/10/27 04:55:00;;;;;;;;;;;17.10;99.90;;;;;;5114193;28;19908;-23
2022/10/27 04:57:26;;;;;;;;;;;17.10;99.90;;;;;;5114098;28;19911;-23
2022/10/27 04:59:51;;;;;;;;;;;17.10;99.90;;;;;;5114070;28;19912;-23
2022/10/27 05:02:17;;;;;;;;;;;17.10;99.90;;;;;;5114701;28;19918;-23
2022/10/27 05:04:42;;;;;;;;;;;17.10;99.90;;;;;;5113401;28;20303;-23
2022/10/27 05:07:08;;;;;;;;;;;17.10;99.90;;;;;;5114352;28;20356;-23
2022/10/27 05:09:33;;;;;;;;;;;17.10;99.90;;;;;;5113709;27;20430;-23
2022/10/27 05:11:59;;;;;;;;;;;17.10;99.90;;;;;;5114484;28;19908;-23
2022/10/27 05:14:24;;;;;;;;;;;17.10;99.90;;;;;;5113566;27;19915;-23
2022/10/27 05:16:50;;;;;;;;;;;17.10;99.90;;;;;;5112262;28;20417;-23
2022/10/27 05:19:15;;;;;;;;;;;17.10;99.90;;;;;;5113358;28;20415;-24
2022/10/27 05:21:41;;;;;;;;;;;17.00;99.90;;;;;;5112577;28;19984;-23
2022/10/27 05:24:06;;;;;;;;;;;17.00;99.90;;;;;;5113930;28;19907;-23
2022/10/27 05:26:32;;;;;;;;;;;17.00;99.90;;;;;;5113439;28;19915;-23
2022/10/27 05:28:58;;;;;;;;;;;17.00;99.90;;;;;;5112696;28;19937;-23
2022/10/27 05:31:23;;;;;;;;;;;17.00;99.90;;;;;;5113302;28;20300;-23
2022/10/27 05:33:49;;;;;;;;;;;17.00;99.90;;;;;;5112752;28;20776;-23
2022/10/27 05:36:14;;;;;;;;;;;17.00;99.90;;;;;;5112237;28;19915;-23
2022/10/27 05:38:41;;;;;;;;;;;17.00;99.90;;;;;;5111849;28;20334;-23
2022/10/27 05:41:06;;;;;;;;;;;17.00;99.90;;;;;;5113369;28;19947;-23
2022/10/27 05:43:32;;;;;;;;;;;17.00;99.90;;;;;;5112698;28;19934;-23
2022/10/27 05:45:57;;;;;;;;;;;17.00;99.90;;;;;;5112991;28;20014;-23
2022/10/27 05:48:23;;;;;;;;;;;17.00;99.90;;;;;;5113483;27;19916;-23
2022/10/27 05:50:52;;;;;;;;;;;17.00;99.90;;;;;;5112974;28;19960;-23
2022/10/27 05:53:18;;;;;;;;;;;17.00;99.90;;;;;;5112492;28;20361;-23
2022/10/27 05:55:44;;;;;;;;;;;17.00;99.90;;;;;;5112990;28;19918;-23
2022/10/27 05:58:09;;;;;;;;;;;17.00;99.90;;;;;;5112907;28;20003;-23
2022/10/27 06:00:36;;;;;;;;;;;17.00;99.90;;;;;;5112650;28;20502;-23
2022/10/27 06:03:02;;;;;;;;;;;17.00;99.90;;;;;;5112483;28;19912;-23
2022/10/27 06:05:29;;;;;;;;;;;16.90;99.90;;;;;;5112610;28;19954;-23
2022/10/27 06:07:55;;;;;;;;;;;16.90;99.90;;;;;;5112908;28;19908;-23
2022/10/27 06:10:20;;;;;;;;;;;17.00;99.90;;;;;;5112570;28;20607;-23
2022/10/27 06:12:46;;;;;;;;;;;17.00;99.90;;;;;;5112939;28;20165;-23
2022/10/27 06:15:11;;;;;;;;;;;17.00;99.90;;;;;;5112416;28;19911;-23
2022/10/27 06:17:37;;;;;;;;;;;17.00;99.90;;;;;;5112402;28;19946;-23
2022/10/27 06:20:03;;;;;;;;;;;16.90;99.90;;;;;;5115774;28;19912;-23
2022/10/27 06:22:28;;;;;;;;;;;16.90;99.90;;;;;;5115162;28;20265;-23
2022/10/27 06:24:54;;;;;;;;;;;16.90;99.90;;;;;;5113198;28;19914;-23
2022/10/27 06:27:19;;;;;;;;;;;16.90;99.90;;;;;;5112526;28;20342;-23
2022/10/27 06:29:45;;;;;;;;;;;16.90;99.90;;;;;;5112885;28;19943;-23
2022/10/27 06:32:10;;;;;;;;;;;16.80;99.90;;;;;;5112316;28;20365;-23
2022/10/27 06:34:36;;;;;;;;;;;16.90;99.90;;;;;;5111734;28;20478;-23
2022/10/27 06:37:04;;;;;;;;;;;16.90;99.90;;;;;;5112001;28;19916;-24
2022/10/27 06:39:30;;;;;;;;;;;16.90;99.90;;;;;;5112003;28;20062;-23
2022/10/27 06:41:56;;;;;;;;;;;16.90;99.90;;;;;;5112176;28;19908;-23
2022/10/27 06:44:22;;;;;;;;;;;16.80;99.90;;;;;;5111514;28;20285;-23
2022/10/27 06:46:47;;;;;;;;;;;16.90;99.90;;;;;;5111907;28;19915;-23
2022/10/27 06:49:13;;;;;;;;;;;16.90;99.90;;;;;;5112113;28;19911;-23
2022/10/27 06:51:38;;;;;;;;;;;16.90;99.90;;;;;;5112178;28;19912;-23
2022/10/27 06:54:04;;;;;;;;;;;16.90;99.90;;;;;;5111416;28;19927;-23
2022/10/27 06:56:29;;;;;;;;;;;16.90;99.90;;;;;;5112269;28;20296;-23
2022/10/27 06:58:55;;;;;;;;;;;16.90;99.90;;;;;;5111694;28;19911;-23
2022/10/27 07:01:20;;;;;;;;;;;16.90;99.90;;;;;;5111600;28;19908;-23
2022/10/27 07:03:46;;;;;;;;;;;16.90;99.90;;;;;;5111201;28;19912;-23
2022/10/27 07:06:11;;;;;;;;;;;16.90;99.90;;;;;;5111696;28;19908;-23
2022/10/27 07:08:37;;;;;;;;;;;17.00;99.90;;;;;;5112075;28;19915;-23
2022/10/27 07:11:02;;;;;;;;;;;17.00;99.90;;;;;;5111648;28;19981;-23
2022/10/27 07:13:28;;;;;;;;;;;17.00;99.90;;;;;;5111110;28;19998;-23
2022/10/27 07:15:53;;;;;;;;;;;17.00;99.90;;;;;;5111429;28;19930;-23
2022/10/27 07:18:19;;;;;;;;;;;17.10;99.90;;;;;;5111700;28;19923;-23
2022/10/27 07:20:45;;;;;;;;;;;17.10;99.90;;;;;;5111520;28;20307;-23
2022/10/27 07:23:10;;;;;;;;;;;17.10;99.90;;;;;;5111335;28;19916;-23
2022/10/27 07:25:37;;;;;;;;;;;17.10;99.90;;;;;;5111520;28;19931;-23
2022/10/27 07:28:04;;;;;;;;;;;17.20;99.90;;;;;;5111525;28;19914;-23
2022/10/27 07:30:31;;;;;;;;;;;17.20;99.90;;;;;;5111425;28;19912;-23
2022/10/27 07:32:57;;;;;;;;;;;17.20;99.90;;;;;;5110892;28;19986;-23
2022/10/27 07:35:23;;;;;;;;;;;17.20;99.90;;;;;;5111486;28;20366;-23
2022/10/27 07:37:48;;;;;;;;;;;17.30;99.90;;;;;;5111376;28;19912;-23
2022/10/27 07:40:15;;;;;;;;;;;17.20;99.90;;;;;;5111377;28;19930;-23
2022/10/27 07:42:47;;;;;;;;;;;17.20;99.90;;;;;;5110855;28;19915;-23
2022/10/27 07:45:13;;;;;;;;;;;17.30;99.90;;;;;;5113175;28;20319;-23
2022/10/27 07:47:45;;;;;;;;;;;17.30;99.90;;;;;;5115180;28;19908;-23
2022/10/27 07:50:10;;;;;;;;;;;17.30;99.90;;;;;;5115211;28;20429;-23
2022/10/27 07:52:39;;;;;;;;;;;17.30;99.90;;;;;;5114691;28;19916;-24
2022/10/27 07:55:05;;;;;;;;;;;17.30;99.90;;;;;;5115084;28;20177;-24
2022/10/27 07:57:30;;;;;;;;;;;17.40;99.90;;;;;;5114843;28;19912;-24
2022/10/27 07:59:56;;;;;;;;;;;17.40;99.90;;;;;;5115066;28;19911;-23
2022/10/27 08:02:22;;;;;;;;;;;17.40;99.90;;;;;;5113611;28;20356;-23
2022/10/27 08:04:47;;;;;;;;;;;17.50;99.90;;;;;;5114796;28;20258;-23
2022/10/27 08:07:13;;;;;;;;;;;17.50;99.90;;;;;;5115269;28;20354;-23
2022/10/27 08:09:38;;;;;;;;;;;17.50;99.90;;;;;;5113572;28;19908;-23
2022/10/27 08:12:04;;;;;;;;;;;17.50;99.90;;;;;;5113279;28;19954;-23
2022/10/27 08:14:29;;;;;;;;;;;17.60;99.90;;;;;;5114309;28;19907;-23
2022/10/27 08:16:56;;;;;;;;;;;17.60;99.90;;;;;;5114794;28;19907;-23
2022/10/27 08:19:21;;;;;;;;;;;17.60;99.90;;;;;;5114477;28;19972;-23
2022/10/27 08:21:47;;;;;;;;;;;17.70;99.90;;;;;;5114631;28;19954;-23
2022/10/27 08:24:12;;;;;;;;;;;17.70;99.90;;;;;;5114101;28;19998;-23
2022/10/27 08:26:38;;;;;;;;;;;17.70;99.90;;;;;;5114428;28;19918;-23
2022/10/27 08:29:03;;;;;;;;;;;17.70;99.90;;;;;;5114401;28;19918;-24
2022/10/27 08:31:29;;;;;;;;;;;17.80;99.90;;;;;;5114466;28;19919;-23
2022/10/27 08:33:54;;;;;;;;;;;17.80;99.90;;;;;;5113724;28;20322;-23
2022/10/27 08:36:20;;;;;;;;;;;17.80;99.90;;;;;;5114787;28;19985;-23
2022/10/27 08:38:45;;;;;;;;;;;17.80;99.90;;;;;;5113941;28;19911;-23
2022/10/27 08:41:24;;;;;;;;;;;17.90;99.90;;;;;;5114092;28;19926;-23
2022/10/27 08:43:58;;;;;;;;;;;17.80;99.90;;;;;;5114097;28;19915;-23
2022/10/27 08:46:43;;;;;;;;;;;17.80;99.90;;;;;;5114158;28;19914;-23
2022/10/27 08:49:24;;;;;;;;;;;17.90;99.90;;;;;;5113921;28;19912;-23
2022/10/27 08:51:50;;;;;;;;;;;17.90;99.90;;;;;;5113924;28;20019;-23
2022/10/27 08:54:16;;;;;;;;;;;17.90;99.90;;;;;;5113428;28;20310;-23
2022/10/27 08:56:42;;;;;;;;;;;17.90;99.90;;;;;;5112774;28;19915;-23
2022/10/27 08:59:13;;;;;;;;;;;17.80;99.90;;;;;;5114063;28;19911;-23
2022/10/27 09:01:38;;;;;;;;;;;17.80;99.90;;;;;;5113887;28;19918;-23
2022/10/27 09:04:07;;;;;;;;;;;17.80;99.90;;;;;;5113434;28;19908;-23
2022/10/27 09:06:36;;;;;;;;;;;17.90;99.90;;;;;;5115625;28;19911;-23
2022/10/27 09:09:02;;;;;;;;;;;17.90;99.90;;;;;;5114386;28;19908;-23
2022/10/27 09:11:27;;;;;;;;;;;18.00;99.90;;;;;;5114278;28;20280;-23
2022/10/27 09:14:01;;;;;;;;;;;18.00;99.90;;;;;;5113218;28;19912;-23
2022/10/27 09:16:38;;;;;;;;;;;18.10;99.90;;;;;;5113798;27;19919;-23
2022/10/27 09:19:06;;;;;;;;;;;18.10;99.90;;;;;;5113696;28;19912;-23
2022/10/27 09:21:33;;;;;;;;;;;18.10;99.90;;;;;;5113709;28;20392;-23
2022/10/27 09:24:02;;;;;;;;;;;18.10;99.90;;;;;;5113152;28;19908;-23
2022/10/27 09:26:30;;;;;;;;;;;18.10;99.90;;;;;;5113733;28;19907;-23
2022/10/27 09:28:56;;;;;;;;;;;18.20;99.90;;;;;;5113406;28;19908;-23
2022/10/27 09:31:27;;;;;;;;;;;18.20;99.90;;;;;;5113274;28;19919;-23
2022/10/27 09:33:58;;;;;;;;;;;18.20;99.90;;;;;;5112731;28;19927;-23
2022/10/27 09:36:23;;;;;;;;;;;18.30;99.90;;;;;;5113469;28;19908;-23
2022/10/27 09:38:49;;;;;;;;;;;18.30;99.90;;;;;;5115521;28;19931;-23
2022/10/27 09:41:14;;;;;;;;;;;18.30;99.90;;;;;;5115850;28;20296;-23
2022/10/27 09:43:40;;;;;;;;;;;18.40;99.90;;;;;;5113321;28;20364;-23
2022/10/27 09:46:11;;;;;;;;;;;18.40;99.90;;;;;;5113124;28;19907;-24
2022/10/27 09:48:37;;;;;;;;;;;18.40;99.90;;;;;;5113372;28;20352;-23
2022/10/27 09:51:11;;;;;;;;;;;18.50;99.90;;;;;;5113319;28;19914;-24
2022/10/27 09:53:46;;;;;;;;;;;18.50;99.90;;;;;;5112523;28;19908;-23
2022/10/27 09:56:14;;;;;;;;;;;18.50;99.90;;;;;;5112800;27;20365;-23
2022/10/27 09:58:41;;;;;;;;;;;18.60;99.90;;;;;;5112802;28;19918;-23
2022/10/27 10:01:07;;;;;;;;;;;18.60;99.90;;;;;;5112706;28;19933;-23
2022/10/27 10:03:32;;;;;;;;;;;18.60;99.90;;;;;;5111964;28;19990;-23
2022/10/27 10:05:59;;;;;;;;;;;18.60;99.90;;;;;;5112482;28;19915;-24
2022/10/27 10:08:25;;;;;;;;;;;18.70;99.90;;;;;;5112154;28;19911;-24
2022/10/27 10:10:58;;;;;;;;;;;18.70;99.90;;;;;;5112490;28;19968;-23
2022/10/27 10:13:24;;;;;;;;;;;18.70;99.90;;;;;;5112208;28;19935;-24
2022/10/27 10:16:10;;;;;;;;;;;18.70;99.90;;;;;;5112207;28;19964;-23
2022/10/27 10:18:37;;;;;;;;;;;18.80;99.90;;;;;;5112202;28;19916;-23
2022/10/27 10:21:03;;;;;;;;;;;18.80;99.90;;;;;;5112571;28;19908;-23
2022/10/27 10:23:33;;;;;;;;;;;18.80;99.90;;;;;;5111931;28;19907;-23
2022/10/27 10:26:00;;;;;;;;;;;18.80;99.90;;;;;;5110948;28;19908;-24
2022/10/27 10:28:30;;;;;;;;;;;18.80;99.90;;;;;;5112733;28;19912;-23
2022/10/27 10:30:56;;;;;;;;;;;18.80;99.90;;;;;;5112402;28;20004;-23
2022/10/27 10:33:23;;;;;;;;;;;18.80;99.90;;;;;;5111832;28;20489;-24
2022/10/27 10:35:49;;;;;;;;;;;18.80;99.90;;;;;;5112234;27;19983;-24
2022/10/27 10:38:24;;;;;;;;;;;18.90;99.90;;;;;;5112252;28;19912;-24
2022/10/27 10:40:57;;;;;;;;;;;18.90;99.90;;;;;;5112426;28;19974;-24
2022/10/27 10:43:23;;;;;;;;;;;18.90;99.90;;;;;;5110582;28;19911;-24
2022/10/27 10:45:51;;;;;;;;;;;18.90;99.90;;;;;;5112354;28;19907;-24
2022/10/27 10:48:49;;;;;;;;;;;19.00;99.90;;;;;;5110507;28;19918;-24
2022/10/27 10:51:23;;;;;;;;;;;19.00;99.90;;;;;;5088219;28;20288;-23
2022/10/27 10:53:50;;;;;;;;;;;19.00;99.90;;;;;;5111542;28;19911;-24
2022/10/27 10:56:23;;;;;;;;;;;19.10;99.90;;;;;;5111865;28;19973;-24
2022/10/27 10:58:51;;;;;;;;;;;19.00;99.90;;;;;;5111599;28;19912;-24
2022/10/27 11:01:17;;;;;;;;;;;19.10;99.90;;;;;;5111666;28;19907;-24
2022/10/27 11:03:44;;;;;;;;;;;19.10;99.90;;;;;;5109656;28;19912;-24
2022/10/27 11:06:18;;;;;;;;;;;19.10;99.90;;;;;;5111819;28;20276;-23
2022/10/27 11:08:50;;;;;;;;;;;19.20;99.90;;;;;;5111639;28;20296;-24
2022/10/27 11:11:18;;;;;;;;;;;19.20;99.90;;;;;;5111619;28;19940;-23
2022/10/27 11:13:47;;;;;;;;;;;19.20;99.90;;;;;;5111126;28;19907;-24
2022/10/27 11:16:13;;;;;;;;;;;19.20;99.90;;;;;;5111671;28;19961;-24
2022/10/27 11:18:39;;;;;;;;;;;19.20;99.90;;;;;;5111597;28;19920;-24
2022/10/27 11:21:12;;;;;;;;;;;19.20;99.90;;;;;;5115683;28;19908;-24
2022/10/27 11:23:43;;;;;;;;;;;19.40;99.90;;;;;;5115665;28;19931;-24
2022/10/27 11:26:09;;;;;;;;;;;19.60;99.90;;;;;;5116120;28;19912;-24
2022/10/27 11:28:35;;;;;;;;;;;19.70;99.90;;;;;;5114498;28;19907;-24
2022/10/27 11:31:09;;;;;;;;;;;19.70;99.90;;;;;;5115914;28;19918;-24
2022/10/27 11:33:53;;;;;;;;;;;19.70;99.90;;;;;;5115343;28;19912;-24
2022/10/27 11:36:23;;;;;;;;;;;19.70;99.90;;;;;;5113973;28;20325;-24
2022/10/27 11:39:03;;;;;;;;;;;19.70;99.90;;;;;;5115470;27;19912;-24
2022/10/27 11:41:28;;;;;;;;;;;19.70;99.90;;;;;;5116080;28;19914;-24
2022/10/27 11:44:05;;;;;;;;;;;19.90;99.90;;;;;;5115343;28;19912;-24
2022/10/27 11:46:49;;;;;;;;;;;19.90;99.90;;;;;;5115919;28;20333;-24
2022/10/27 11:49:30;;;;;;;;;;;20.00;99.90;;;;;;5115821;28;20395;-24
2022/10/27 11:51:59;;;;;;;;;;;20.00;99.90;;;;;;5115959;28;19943;-24
2022/10/27 11:54:25;;;;;;;;;;;20.00;99.90;;;;;;5115578;27;19916;-24
2022/10/27 11:57:09;;;;;;;;;;;20.00;99.90;;;;;;5115858;28;19911;-24
2022/10/27 11:59:44;;;;;;;;;;;20.00;99.90;;;;;;5115859;28;19969;-24
2022/10/27 12:02:29;;;;;;;;;;;19.90;99.90;;;;;;5115763;28;19930;-23
2022/10/27 12:05:06;;;;;;;;;;;19.90;99.90;;;;;;5115405;28;20334;-24
2022/10/27 12:07:31;;;;;;;;;;;19.90;99.90;;;;;;5115087;28;19919;-24
2022/10/27 12:10:09;;;;;;;;;;;19.90;99.90;;;;;;5115579;28;19915;-24
2022/10/27 12:12:36;;;;;;;;;;;19.90;99.90;;;;;;5114992;28;19911;-24
2022/10/27 12:15:14;;;;;;;;;;;19.90;99.90;;;;;;5114883;28;20356;-24
2022/10/27 12:17:47;;;;;;;;;;;19.90;99.90;;;;;;5114788;28;19912;-24
2022/10/27 12:20:16;;;;;;;;;;;19.90;99.90;;;;;;5114885;28;20267;-24
2022/10/27 12:22:55;;;;;;;;;;;19.80;99.90;;;;;;5114501;28;19915;-24
2022/10/27 12:25:24;;;;;;;;;;;19.80;99.90;;;;;;5115256;28;19958;-23
2022/10/27 12:27:51;;;;;;;;;;;19.80;99.90;;;;;;5114640;28;19908;-24
2022/10/27 12:30:19;;;;;;;;;;;19.80;99.90;;;;;;5114303;28;19991;-24
2022/10/27 12:32:57;;;;;;;;;;;19.80;99.90;;;;;;5114275;28;19912;-24
2022/10/27 12:35:27;;;;;;;;;;;19.80;99.90;;;;;;5114545;28;20350;-24
2022/10/27 12:38:13;;;;;;;;;;;19.80;99.90;;;;;;5114438;28;19915;-24
2022/10/27 12:40:51;;;;;;;;;;;19.80;99.90;;;;;;5114385;28;19915;-24
2022/10/27 12:43:30;;;;;;;;;;;19.80;99.90;;;;;;5114135;28;19916;-23
2022/10/27 12:45:59;;;;;;;;;;;19.80;99.90;;;;;;5114373;28;19968;-24
2022/10/27 12:48:24;;;;;;;;;;;19.80;99.90;;;;;;5114241;28;19930;-24
2022/10/27 12:50:53;;;;;;;;;;;19.70;99.90;;;;;;5114280;28;19911;-24
2022/10/27 12:53:30;;;;;;;;;;;19.80;99.90;;;;;;5113698;28;20342;-24
2022/10/27 12:56:10;;;;;;;;;;;19.80;99.90;;;;;;5114582;28;19912;-24
2022/10/27 12:58:47;;;;;;;;;;;19.80;99.90;;;;;;5114403;28;19967;-24
2022/10/27 13:01:19;;;;;;;;;;;19.80;99.90;;;;;;5114182;28;20257;-24
2022/10/27 13:03:57;;;;;;;;;;;19.80;99.90;;;;;;5113591;28;20383;-24
2022/10/27 13:06:23;;;;;;;;;;;19.80;99.90;;;;;;5114656;28;20360;-24
2022/10/27 13:08:54;;;;;;;;;;;19.70;99.90;;;;;;5115018;28;19947;-24
2022/10/27 13:11:52;;;;;;;;;;;19.80;99.90;;;;;;5114025;28;20513;-24
2022/10/27 13:14:33;;;;;;;;;;;19.70;99.90;;;;;;5089685;28;19919;-24
2022/10/27 13:17:07;;;;;;;;;;;19.70;99.90;;;;;;5114142;27;19907;-24
2022/10/27 13:19:48;;;;;;;;;;;19.70;99.90;;;;;;5113699;28;19916;-24
2022/10/27 13:22:22;;;;;;;;;;;19.80;99.90;;;;;;5113786;28;19939;-24
2022/10/27 13:25:06;;;;;;;;;;;19.80;99.90;;;;;;5113336;28;19919;-24
2022/10/27 13:27:54;;;;;;;;;;;19.80;99.90;;;;;;5113623;28;20356;-24
2022/10/27 13:30:21;;;;;;;;;;;19.70;99.90;;;;;;5113836;28;19911;-24
2022/10/27 13:32:47;;;;;;;;;;;19.80;99.90;;;;;;5112890;27;20007;-24
2022/10/27 13:35:26;;;;;;;;;;;19.70;99.90;;;;;;5114046;28;20002;-24
2022/10/27 13:37:54;;;;;;;;;;;19.70;99.90;;;;;;5113709;28;19924;-24
2022/10/27 13:40:19;;;;;;;;;;;19.70;99.90;;;;;;5113650;28;20088;-24
2022/10/27 13:42:52;;;;;;;;;;;19.70;99.90;;;;;;5112340;28;20009;-24
2022/10/27 13:45:41;;;;;;;;;;;19.70;99.90;;;;;;5113504;28;20369;-24
2022/10/27 13:48:06;;;;;;;;;;;19.70;99.90;;;;;;5107657;28;19952;-23
2022/10/27 13:50:33;;;;;;;;;;;19.70;99.90;;;;;;5113516;28;19950;-24
2022/10/27 13:53:13;;;;;;;;;;;19.70;99.90;;;;;;5113217;28;19915;-24
2022/10/27 13:55:49;;;;;;;;;;;19.70;99.90;;;;;;5113165;28;19907;-24
2022/10/27 13:58:17;;;;;;;;;;;19.70;99.90;;;;;;5112916;28;20456;-24
2022/10/27 14:01:02;;;;;;;;;;;19.70;99.90;;;;;;5112903;28;20002;-24
2022/10/27 14:03:33;;;;;;;;;;;19.70;99.90;;;;;;5112750;28;20311;-24
2022/10/27 14:05:59;;;;;;;;;;;19.70;99.90;;;;;;5112981;28;19912;-24
2022/10/27 14:08:24;;;;;;;;;;;19.70;99.90;;;;;;5112627;28;19908;-24
2022/10/27 14:10:50;;;;;;;;;;;19.70;99.90;;;;;;5112200;28;19969;-24
2022/10/27 14:13:19;;;;;;;;;;;19.70;99.90;;;;;;5112352;28;19908;-24
2022/10/27 14:15:45;;;;;;;;;;;19.70;99.90;;;;;;5112687;28;20449;-24
2022/10/27 14:18:37;;;;;;;;;;;19.70;99.90;;;;;;5112580;28;20381;-24
2022/10/27 14:21:09;;;;;;;;;;;19.70;99.90;;;;;;5109302;28;19918;-24
2022/10/27 14:23:34;;;;;;;;;;;19.70;99.90;;;;;;5112000;28;19908;-24